createdAt,value
2024-01-18T00:01:42.366Z,-2.97
2024-01-18T00:04:08.928Z,-2.98
2024-01-18T00:06:36.217Z,-2.95
2024-01-18T00:09:02.832Z,-3.12
2024-01-18T00:11:29.253Z,-3.19
2024-01-18T00:13:55.683Z,-3.30
2024-01-18T00:16:22.152Z,-3.34
2024-01-18T00:18:48.708Z,-3.53
2024-01-18T00:21:15.223Z,-3.30
2024-01-18T00:23:41.678Z,-3.15
2024-01-18T00:26:08.628Z,-3.04
2024-01-18T00:28:35.022Z,-3.06
2024-01-18T00:31:01.503Z,-3.11
2024-01-18T00:33:27.987Z,-2.95
2024-01-18T00:35:54.579Z,-2.92
2024-01-18T00:38:21.027Z,-2.92
2024-01-18T00:40:47.454Z,-2.92
2024-01-18T00:43:13.856Z,-2.94
2024-01-18T00:45:40.319Z,-2.96
2024-01-18T00:48:06.961Z,-2.94
2024-01-18T00:50:33.399Z,-2.98
2024-01-18T00:53:00.013Z,-2.90
2024-01-18T00:55:26.424Z,-2.90
2024-01-18T00:57:53.571Z,-2.93
2024-01-18T01:00:20.042Z,-2.91
2024-01-18T01:02:46.467Z,-2.92
2024-01-18T01:05:12.898Z,-2.99
2024-01-18T01:07:39.281Z,-3.01
2024-01-18T01:10:07.124Z,-3.04
2024-01-18T01:12:33.580Z,-2.91
2024-01-18T01:15:00.084Z,-2.97
2024-01-18T01:17:26.560Z,-2.90
2024-01-18T01:19:53.264Z,-2.70
2024-01-18T01:22:19.692Z,-2.78
2024-01-18T01:24:46.064Z,-2.72
2024-01-18T01:27:12.490Z,-2.77
2024-01-18T01:29:38.939Z,-2.70
2024-01-18T01:32:05.379Z,-2.64
2024-01-18T01:34:31.950Z,-2.70
2024-01-18T01:36:58.416Z,-2.77
2024-01-18T01:39:25.340Z,-2.65
2024-01-18T01:41:51.743Z,-2.71
2024-01-18T01:44:18.247Z,-2.66
2024-01-18T01:46:44.630Z,-2.87
2024-01-18T01:49:11.128Z,-2.81
2024-01-18T01:51:49.152Z,-2.76
2024-01-18T01:54:15.988Z,-2.59
2024-01-18T01:56:42.379Z,-2.67
2024-01-18T01:59:10.002Z,-2.82
2024-01-18T02:01:36.625Z,-2.87
2024-01-18T02:04:03.084Z,-2.90
2024-01-18T02:06:29.774Z,-2.82
2024-01-18T02:08:56.221Z,-2.78
2024-01-18T02:11:22.722Z,-2.93
2024-01-18T02:13:49.536Z,-2.91
2024-01-18T02:16:15.898Z,-2.97
2024-01-18T02:18:42.355Z,-3.02
2024-01-18T02:21:09.688Z,-3.01
2024-01-18T02:23:36.156Z,-2.94
2024-01-18T02:26:02.573Z,-2.93
2024-01-18T02:28:28.948Z,-2.82
2024-01-18T02:30:55.328Z,-2.71
2024-01-18T02:33:21.813Z,-2.79
2024-01-18T02:35:48.225Z,-2.79
2024-01-18T02:38:14.614Z,-2.79
2024-01-18T02:40:41.244Z,-2.84
2024-01-18T02:43:07.614Z,-2.67
2024-01-18T02:45:34.008Z,-2.68
2024-01-18T02:48:00.528Z,-2.83
2024-01-18T02:50:26.951Z,-2.74
2024-01-18T02:52:53.326Z,-2.60
2024-01-18T02:55:19.933Z,-2.63
2024-01-18T02:57:46.419Z,-2.71
2024-01-18T03:00:13.063Z,-2.85
2024-01-18T03:02:39.494Z,-2.89
2024-01-18T03:05:07.028Z,-2.68
2024-01-18T03:07:34.452Z,-2.89
2024-01-18T03:10:00.873Z,-2.91
2024-01-18T03:12:27.282Z,-2.94
2024-01-18T03:14:53.739Z,-2.95
2024-01-18T03:17:20.109Z,-2.96
2024-01-18T03:19:46.601Z,-2.95
2024-01-18T03:22:13.048Z,-2.92
2024-01-18T03:24:39.572Z,-2.82
2024-01-18T03:27:06.102Z,-2.77
2024-01-18T03:29:32.511Z,-2.78
2024-01-18T03:31:59.126Z,-2.72
2024-01-18T03:34:25.830Z,-2.77
2024-01-18T03:36:52.309Z,-2.81
2024-01-18T03:39:19.273Z,-2.82
2024-01-18T03:41:45.667Z,-2.92
2024-01-18T03:44:12.042Z,-2.74
2024-01-18T03:46:38.845Z,-2.58
2024-01-18T03:49:05.289Z,-2.62
2024-01-18T03:51:31.784Z,-2.75
2024-01-18T03:53:58.391Z,-2.84
2024-01-18T03:56:24.827Z,-2.80
2024-01-18T03:58:51.213Z,-2.74
2024-01-18T04:01:17.647Z,-2.72
2024-01-18T04:03:44.230Z,-2.87
2024-01-18T04:06:13.189Z,-2.97
2024-01-18T04:08:39.677Z,-2.99
2024-01-18T04:11:06.067Z,-2.89
2024-01-18T04:13:33.504Z,-2.95
2024-01-18T04:15:59.910Z,-2.81
2024-01-18T04:18:26.386Z,-2.89
2024-01-18T04:20:54.077Z,-2.98
2024-01-18T04:23:20.905Z,-3.06
2024-01-18T04:25:48.549Z,-3.05
2024-01-18T04:28:15.010Z,-3.20
2024-01-18T04:30:41.541Z,-3.23
2024-01-18T04:33:08.789Z,-3.14
2024-01-18T04:35:35.244Z,-3.09
2024-01-18T04:38:01.606Z,-3.00
2024-01-18T04:40:27.968Z,-3.08
2024-01-18T04:42:54.450Z,-3.16
2024-01-18T04:45:21.166Z,-2.95
2024-01-18T04:47:47.604Z,-2.88
2024-01-18T04:50:13.994Z,-2.97
2024-01-18T04:52:40.412Z,-2.91
2024-01-18T04:55:06.934Z,-2.57
2024-01-18T04:57:33.544Z,-2.44
2024-01-18T04:59:59.981Z,-2.57
2024-01-18T05:02:26.399Z,-2.46
2024-01-18T05:04:53.414Z,-2.48
2024-01-18T05:07:19.909Z,-2.43
2024-01-18T05:09:46.460Z,-2.43
2024-01-18T05:12:13.901Z,-2.43
2024-01-18T05:14:40.461Z,-2.45
2024-01-18T05:17:11.865Z,-2.25
2024-01-18T05:19:38.664Z,-2.14
2024-01-18T05:22:05.272Z,-2.27
2024-01-18T05:24:31.988Z,-2.35
2024-01-18T05:26:58.614Z,-2.22
2024-01-18T05:29:25.044Z,-2.22
2024-01-18T05:31:51.609Z,-2.37
2024-01-18T05:34:18.141Z,-2.49
2024-01-18T05:36:44.601Z,-2.53
2024-01-18T05:39:11.060Z,-2.61
2024-01-18T05:41:37.463Z,-2.61
2024-01-18T05:44:03.914Z,-2.80
2024-01-18T05:46:30.296Z,-2.76
2024-01-18T05:48:56.785Z,-2.72
2024-01-18T05:51:23.344Z,-2.74
2024-01-18T05:53:49.749Z,-2.65
2024-01-18T05:56:16.130Z,-2.68
2024-01-18T05:58:44.696Z,-2.64
2024-01-18T06:01:12.894Z,-2.60
2024-01-18T06:03:39.410Z,-2.66
2024-01-18T06:06:06.011Z,-2.69
2024-01-18T06:08:32.464Z,-2.59
2024-01-18T06:10:58.829Z,-2.38
2024-01-18T06:13:25.204Z,-2.42
2024-01-18T06:15:51.691Z,-2.31
2024-01-18T06:18:18.201Z,-2.25
2024-01-18T06:20:44.631Z,-2.37
2024-01-18T06:23:11.509Z,-2.42
2024-01-18T06:25:38.524Z,-2.59
2024-01-18T06:28:05.414Z,-2.55
2024-01-18T06:30:31.869Z,-2.62
2024-01-18T06:32:58.355Z,-2.60
2024-01-18T06:35:24.784Z,-2.65
2024-01-18T06:37:51.235Z,-2.76
2024-01-18T06:40:18.992Z,-2.77
2024-01-18T06:42:45.429Z,-2.47
2024-01-18T06:45:11.943Z,-2.31
2024-01-18T06:47:38.434Z,-2.24
2024-01-18T06:50:04.960Z,-2.27
2024-01-18T06:52:31.358Z,-2.38
2024-01-18T06:54:57.802Z,-2.24
2024-01-18T06:57:24.257Z,-2.39
2024-01-18T06:59:53.272Z,-2.24
2024-01-18T07:02:20.870Z,-2.34
2024-01-18T07:04:47.376Z,-2.25
2024-01-18T07:07:13.796Z,-2.18
2024-01-18T07:09:40.253Z,-2.18
2024-01-18T07:12:06.941Z,-2.21
2024-01-18T07:14:34.593Z,-2.15
2024-01-18T07:17:01.476Z,-2.29
2024-01-18T07:19:27.977Z,-2.44
2024-01-18T07:21:54.478Z,-2.55
2024-01-18T07:24:27.568Z,-2.58
2024-01-18T07:26:53.973Z,-2.73
2024-01-18T07:29:20.675Z,-2.94
2024-01-18T07:31:48.452Z,-2.96
2024-01-18T07:34:17.023Z,-2.99
2024-01-18T07:36:44.584Z,-3.03
2024-01-18T07:39:12.009Z,-3.06
2024-01-18T07:41:38.435Z,-3.10
2024-01-18T07:44:04.851Z,-3.18
2024-01-18T07:46:31.271Z,-3.36
2024-01-18T07:48:58.706Z,-3.42
2024-01-18T07:51:25.212Z,-3.54
2024-01-18T07:53:51.792Z,-3.48
2024-01-18T07:56:18.170Z,-3.19
2024-01-18T07:58:44.678Z,-2.99
2024-01-18T08:01:11.244Z,-3.13
2024-01-18T08:03:38.369Z,-2.88
2024-01-18T08:06:05.172Z,-2.99
2024-01-18T08:08:31.692Z,-3.06
2024-01-18T08:10:58.066Z,-3.38
2024-01-18T08:13:24.430Z,-3.65
2024-01-18T08:15:51.905Z,-3.73
2024-01-18T08:18:19.234Z,-3.49
2024-01-18T08:20:45.946Z,-3.14
2024-01-18T08:23:12.804Z,-3.03
2024-01-18T08:25:39.232Z,-3.04
2024-01-18T08:28:05.806Z,-3.56
2024-01-18T08:30:32.279Z,-3.71
2024-01-18T08:32:58.739Z,-3.81
2024-01-18T08:35:25.169Z,-3.78
2024-01-18T08:37:51.658Z,-3.92
2024-01-18T08:40:18.579Z,-4.04
2024-01-18T08:42:47.054Z,-3.87
2024-01-18T08:45:13.704Z,-3.83
2024-01-18T08:47:40.414Z,-3.84
2024-01-18T08:50:07.145Z,-3.92
2024-01-18T08:52:33.567Z,-3.78
2024-01-18T08:55:00.037Z,-3.30
2024-01-18T08:57:29.481Z,-2.97
2024-01-18T08:59:56.526Z,-2.83
2024-01-18T09:02:24.272Z,-2.67
2024-01-18T09:04:51.465Z,-2.43
2024-01-18T09:07:18.062Z,-2.16
2024-01-18T09:09:46.413Z,-1.94
2024-01-18T09:12:13.230Z,-1.75
2024-01-18T09:14:39.663Z,-1.50
2024-01-18T09:17:06.057Z,-1.36
2024-01-18T09:19:32.802Z,-1.34
2024-01-18T09:21:59.296Z,-1.12
2024-01-18T09:24:25.780Z,-1.14
2024-01-18T09:26:52.229Z,-1.34
2024-01-18T09:29:18.696Z,-1.11
2024-01-18T09:31:45.061Z,-0.93
2024-01-18T09:34:11.854Z,-0.90
2024-01-18T09:36:38.751Z,-0.74
2024-01-18T09:39:17.538Z,-0.66
2024-01-18T09:41:44.387Z,-0.56
2024-01-18T09:44:12.284Z,-0.47
2024-01-18T09:46:39.695Z,-0.47
2024-01-18T09:49:08.872Z,-0.35
2024-01-18T09:51:35.432Z,-0.46
2024-01-18T09:54:02.271Z,-0.35
2024-01-18T09:56:29.438Z,-0.44
2024-01-18T09:58:58.120Z,-0.31
2024-01-18T10:01:26.096Z,-0.19
2024-01-18T10:03:52.936Z,-0.15
2024-01-18T10:06:19.825Z,-0.17
2024-01-18T10:08:47.022Z,-0.21
2024-01-18T10:11:13.382Z,-0.06
2024-01-18T10:13:52.414Z,0.19
2024-01-18T10:16:28.622Z,0.11
2024-01-18T10:18:58.140Z,0.10
2024-01-18T10:21:24.841Z,0.40
2024-01-18T10:23:52.284Z,0.47
2024-01-18T10:26:18.745Z,0.40
2024-01-18T10:28:45.461Z,0.42
2024-01-18T10:31:11.844Z,0.37
2024-01-18T10:33:38.270Z,0.33
2024-01-18T10:36:04.740Z,0.78
2024-01-18T10:38:31.101Z,1.01
2024-01-18T10:41:00.778Z,0.82
2024-01-18T10:43:30.884Z,0.85
2024-01-18T10:45:58.031Z,0.82
2024-01-18T10:48:25.997Z,1.23
2024-01-18T10:50:53.926Z,1.19
2024-01-18T10:53:20.751Z,1.39
2024-01-18T10:55:47.155Z,1.95
2024-01-18T10:58:13.583Z,1.78
2024-01-18T11:00:40.047Z,1.91
2024-01-18T11:03:06.615Z,1.43
2024-01-18T11:05:33.159Z,1.63
2024-01-18T11:07:59.749Z,1.46
2024-01-18T11:10:26.380Z,1.71
2024-01-18T11:12:53.900Z,1.96
2024-01-18T11:15:20.524Z,1.84
2024-01-18T11:17:47.072Z,2.32
2024-01-18T11:20:13.681Z,2.30
2024-01-18T11:22:43.090Z,1.77
2024-01-18T11:25:34.166Z,1.95
2024-01-18T11:28:02.626Z,1.56
2024-01-18T11:30:33.600Z,1.67
2024-01-18T11:33:00.321Z,1.92
2024-01-18T11:35:26.980Z,1.25
2024-01-18T11:37:53.435Z,0.57
2024-01-18T11:40:19.858Z,0.57
2024-01-18T11:42:46.449Z,0.59
2024-01-18T11:45:16.667Z,1.13
2024-01-18T11:47:43.122Z,1.37
2024-01-18T11:50:12.160Z,1.15
2024-01-18T11:52:47.481Z,1.46
2024-01-18T11:55:15.238Z,1.74
2024-01-18T11:57:41.689Z,1.53
2024-01-18T12:00:08.430Z,1.65
2024-01-18T12:02:34.872Z,1.71
2024-01-18T12:05:01.825Z,1.90
2024-01-18T12:07:28.913Z,1.92
2024-01-18T12:09:55.592Z,1.45
2024-01-18T12:12:22.064Z,1.54
2024-01-18T12:14:48.733Z,1.89
2024-01-18T12:17:15.341Z,1.95
2024-01-18T12:19:45.504Z,1.83
2024-01-18T12:22:12.480Z,1.91
2024-01-18T12:24:39.196Z,1.85
2024-01-18T12:27:08.657Z,2.02
2024-01-18T12:29:35.803Z,1.90
2024-01-18T12:32:02.457Z,1.58
2024-01-18T12:34:29.586Z,1.76
2024-01-18T12:36:56.000Z,1.44
2024-01-18T12:39:22.466Z,1.42
2024-01-18T12:41:53.049Z,1.30
2024-01-18T12:44:19.508Z,1.13
2024-01-18T12:46:47.160Z,0.74
2024-01-18T12:49:13.802Z,0.47
2024-01-18T12:51:40.268Z,0.41
2024-01-18T12:54:06.662Z,0.62
2024-01-18T12:56:33.071Z,0.66
2024-01-18T12:58:59.462Z,0.61
2024-01-18T13:01:32.546Z,0.57
2024-01-18T13:04:15.110Z,0.53
2024-01-18T13:06:48.256Z,0.60
2024-01-18T13:09:22.499Z,0.80
2024-01-18T13:11:49.166Z,0.83
2024-01-18T13:14:18.504Z,0.64
2024-01-18T13:16:45.427Z,0.53
2024-01-18T13:19:15.070Z,0.59
2024-01-18T13:21:44.612Z,0.62
2024-01-18T13:24:11.397Z,0.72
2024-01-18T13:26:38.138Z,0.70
2024-01-18T13:29:04.852Z,0.66
2024-01-18T13:31:31.782Z,0.58
2024-01-18T13:33:58.303Z,0.53
2024-01-18T13:36:24.754Z,0.37
2024-01-18T13:38:51.145Z,0.30
2024-01-18T13:41:17.948Z,0.26
2024-01-18T13:43:46.890Z,0.05
2024-01-18T13:46:14.751Z,-0.04
2024-01-18T13:48:42.314Z,-0.02
2024-01-18T13:51:08.749Z,-0.12
2024-01-18T13:53:35.118Z,-0.18
2024-01-18T13:56:01.714Z,-0.13
2024-01-18T13:58:28.162Z,-0.23
2024-01-18T14:00:54.623Z,-0.19
2024-01-18T14:03:21.572Z,-0.10
2024-01-18T14:05:48.576Z,0.00
2024-01-18T14:08:15.500Z,-0.05
2024-01-18T14:10:42.153Z,-0.05
2024-01-18T14:13:08.582Z,-0.20
2024-01-18T14:15:37.132Z,-0.01
2024-01-18T14:18:04.462Z,0.13
2024-01-18T14:20:31.167Z,0.06
2024-01-18T14:22:57.653Z,0.23
2024-01-18T14:25:25.287Z,0.27
2024-01-18T14:27:51.790Z,0.23
2024-01-18T14:30:18.316Z,0.29
2024-01-18T14:32:45.255Z,0.33
2024-01-18T14:35:11.658Z,0.36
2024-01-18T14:37:38.424Z,0.42
2024-01-18T14:40:07.444Z,0.45
2024-01-18T14:42:34.313Z,0.49
2024-01-18T14:45:00.739Z,0.52
2024-01-18T14:47:27.197Z,0.43
2024-01-18T14:49:53.879Z,0.40
2024-01-18T14:52:23.876Z,0.25
2024-01-18T14:54:50.897Z,0.11
2024-01-18T14:57:17.706Z,0.02
2024-01-18T14:59:44.168Z,-0.09
2024-01-18T15:02:11.097Z,-0.13
2024-01-18T15:04:37.679Z,-0.20
2024-01-18T15:07:05.071Z,-0.54
2024-01-18T15:09:31.986Z,-0.76
2024-01-18T15:11:58.724Z,-0.64
2024-01-18T15:14:25.227Z,-0.66
2024-01-18T15:16:54.688Z,-0.74
2024-01-18T15:19:21.340Z,-0.60
2024-01-18T15:21:47.874Z,-0.64
2024-01-18T15:24:14.427Z,-0.71
2024-01-18T15:26:41.012Z,-0.80
2024-01-18T15:29:07.926Z,-0.67
2024-01-18T15:31:34.354Z,-0.74
2024-01-18T15:34:03.997Z,-0.71
2024-01-18T15:36:31.037Z,-0.51
2024-01-18T15:38:57.449Z,-0.51
2024-01-18T15:41:23.901Z,-0.52
2024-01-18T15:43:50.288Z,-0.37
2024-01-18T15:46:16.907Z,-0.41
2024-01-18T15:48:43.413Z,-0.50
2024-01-18T15:51:13.361Z,-0.51
2024-01-18T15:53:39.893Z,-0.55
2024-01-18T15:56:07.422Z,-0.50
2024-01-18T15:58:33.841Z,-0.53
2024-01-18T16:01:01.768Z,-0.57
2024-01-18T16:03:28.933Z,-0.56
2024-01-18T16:05:56.191Z,-0.47
2024-01-18T16:08:22.650Z,-0.47
2024-01-18T16:10:49.062Z,-0.51
2024-01-18T16:13:15.424Z,-0.42
2024-01-18T16:15:41.854Z,-0.39
2024-01-18T16:18:08.937Z,-0.44
2024-01-18T16:20:35.383Z,-0.53
2024-01-18T16:23:02.869Z,-0.49
2024-01-18T16:25:29.395Z,-0.49
2024-01-18T16:27:55.896Z,-0.40
2024-01-18T16:30:27.432Z,-0.33
2024-01-18T16:32:57.199Z,-0.31
2024-01-18T16:35:23.581Z,-0.34
2024-01-18T16:37:49.994Z,-0.28
2024-01-18T16:40:16.392Z,-0.27
2024-01-18T16:42:42.960Z,-0.31
2024-01-18T16:45:09.497Z,-0.30
2024-01-18T16:47:35.901Z,-0.18
2024-01-18T16:50:02.468Z,-0.17
2024-01-18T16:52:28.919Z,-0.23
2024-01-18T16:54:55.344Z,-0.22
2024-01-18T16:57:29.680Z,-0.16
2024-01-18T16:59:59.216Z,-0.17
2024-01-18T17:02:25.715Z,-0.19
2024-01-18T17:04:52.304Z,-0.38
2024-01-18T17:07:18.929Z,-0.37
2024-01-18T17:09:45.362Z,-0.47
2024-01-18T17:12:11.767Z,-0.72
2024-01-18T17:14:40.258Z,-0.89
2024-01-18T17:17:08.067Z,-1.00
2024-01-18T17:19:34.707Z,-1.31
2024-01-18T17:22:02.404Z,-1.15
2024-01-18T17:24:29.625Z,-1.09
2024-01-18T17:26:56.012Z,-1.06
2024-01-18T17:29:22.930Z,-1.10
2024-01-18T17:31:49.373Z,-1.05
2024-01-18T17:34:15.849Z,-0.96
2024-01-18T17:36:42.725Z,-0.90
2024-01-18T17:39:09.240Z,-0.85
2024-01-18T17:41:35.703Z,-0.78
2024-01-18T17:44:02.272Z,-0.54
2024-01-18T17:46:28.728Z,-0.56
2024-01-18T17:48:58.880Z,-0.54
2024-01-18T17:51:25.684Z,-0.49
2024-01-18T17:53:53.841Z,-0.43
2024-01-18T17:56:20.470Z,-0.33
2024-01-18T17:58:46.893Z,-0.37
2024-01-18T18:01:15.358Z,-0.38
2024-01-18T18:03:41.853Z,-0.33
2024-01-18T18:06:08.398Z,-0.31
2024-01-18T18:08:35.011Z,-0.33
2024-01-18T18:11:02.964Z,-0.36
2024-01-18T18:13:30.075Z,-0.38
2024-01-18T18:15:58.529Z,-0.42
2024-01-18T18:18:25.495Z,-0.43
2024-01-18T18:20:52.068Z,-0.46
2024-01-18T18:23:18.566Z,-0.43
2024-01-18T18:25:44.965Z,-0.47
2024-01-18T18:28:14.248Z,-0.37
2024-01-18T18:30:48.020Z,-0.56
2024-01-18T18:33:21.607Z,-0.51
2024-01-18T18:35:48.130Z,-0.50
2024-01-18T18:38:21.247Z,-0.42
2024-01-18T18:40:53.781Z,-0.58
2024-01-18T18:43:20.923Z,-0.67
2024-01-18T18:45:48.283Z,-0.76
2024-01-18T18:48:14.785Z,-0.92
2024-01-18T18:50:41.331Z,-1.21
2024-01-18T18:53:07.859Z,-1.48
2024-01-18T18:55:34.243Z,-1.98
2024-01-18T18:58:00.638Z,-2.31
2024-01-18T19:00:27.069Z,-2.37
2024-01-18T19:02:53.736Z,-2.51
2024-01-18T19:05:22.738Z,-2.80
2024-01-18T19:07:49.298Z,-2.83
2024-01-18T19:10:16.568Z,-2.85
2024-01-18T19:12:42.991Z,-2.98
2024-01-18T19:15:09.848Z,-3.01
2024-01-18T19:17:36.711Z,-3.01
2024-01-18T19:20:03.686Z,-3.04
2024-01-18T19:22:30.241Z,-3.22
2024-01-18T19:24:59.853Z,-2.98
2024-01-18T19:27:26.691Z,-3.11
2024-01-18T19:29:53.050Z,-3.08
2024-01-18T19:32:19.453Z,-3.15
2024-01-18T19:34:45.928Z,-3.24
2024-01-18T19:37:13.952Z,-3.29
2024-01-18T19:39:44.076Z,-3.63
2024-01-18T19:42:10.883Z,-3.37
2024-01-18T19:44:37.376Z,-3.67
2024-01-18T19:47:03.794Z,-3.35
2024-01-18T19:49:30.402Z,-3.43
2024-01-18T19:51:58.826Z,-3.49
2024-01-18T19:54:25.544Z,-3.66
2024-01-18T19:56:52.766Z,-3.81
2024-01-18T19:59:19.683Z,-3.94
2024-01-18T20:01:46.102Z,-3.70
2024-01-18T20:04:12.565Z,-3.49
2024-01-18T20:06:38.994Z,-3.53
2024-01-18T20:09:05.543Z,-3.32
2024-01-18T20:11:31.968Z,-3.41
2024-01-18T20:13:59.369Z,-3.42
2024-01-18T20:16:25.791Z,-3.26
2024-01-18T20:18:53.085Z,-3.32
2024-01-18T20:21:19.535Z,-2.89
2024-01-18T20:23:46.436Z,-2.82
2024-01-18T20:26:14.099Z,-2.68
2024-01-18T20:28:41.793Z,-2.49
2024-01-18T20:31:11.033Z,-2.30
2024-01-18T20:33:39.746Z,-2.36
2024-01-18T20:36:06.398Z,-2.20
2024-01-18T20:38:32.859Z,-2.21
2024-01-18T20:40:59.486Z,-2.51
2024-01-18T20:43:26.235Z,-2.30
2024-01-18T20:45:52.653Z,-2.40
2024-01-18T20:48:19.139Z,-2.51
2024-01-18T20:50:45.624Z,-2.37
2024-01-18T20:53:12.094Z,-2.33
2024-01-18T20:55:38.512Z,-2.13
2024-01-18T20:58:04.926Z,-2.24
2024-01-18T21:00:35.635Z,-2.25
2024-01-18T21:03:02.890Z,-2.29
2024-01-18T21:05:29.371Z,-2.18
2024-01-18T21:07:56.495Z,-2.43
2024-01-18T21:10:23.235Z,-1.97
2024-01-18T21:12:49.788Z,-2.37
2024-01-18T21:15:16.190Z,-2.78
2024-01-18T21:17:45.069Z,-2.58
2024-01-18T21:20:12.221Z,-2.40
2024-01-18T21:22:38.659Z,-2.58
2024-01-18T21:25:05.095Z,-2.59
2024-01-18T21:27:31.478Z,-2.76
2024-01-18T21:29:58.136Z,-2.76
2024-01-18T21:32:24.748Z,-2.85
2024-01-18T21:34:51.821Z,-2.78
2024-01-18T21:37:18.529Z,-2.73
2024-01-18T21:39:44.908Z,-3.00
2024-01-18T21:42:11.304Z,-2.84
2024-01-18T21:44:38.260Z,-2.77
2024-01-18T21:47:04.793Z,-2.88
2024-01-18T21:49:32.205Z,-2.79
2024-01-18T21:51:58.830Z,-2.85
2024-01-18T21:54:25.196Z,-2.82
2024-01-18T21:56:51.812Z,-2.78
2024-01-18T21:59:24.987Z,-2.74
2024-01-18T22:01:59.978Z,-2.98
2024-01-18T22:04:26.848Z,-3.18
2024-01-18T22:06:53.284Z,-3.06
2024-01-18T22:09:27.512Z,-3.15
2024-01-18T22:12:01.430Z,-2.98
2024-01-18T22:14:28.094Z,-3.04
2024-01-18T22:16:54.641Z,-3.29
2024-01-18T22:19:35.135Z,-3.46
2024-01-18T22:22:09.086Z,-3.66
2024-01-18T22:24:35.527Z,-3.61
2024-01-18T22:27:01.925Z,-3.47
2024-01-18T22:29:28.342Z,-3.59
2024-01-18T22:31:54.723Z,-3.84
2024-01-18T22:34:21.190Z,-3.65
2024-01-18T22:36:47.733Z,-3.64
2024-01-18T22:39:14.159Z,-3.78
2024-01-18T22:41:40.569Z,-4.02
2024-01-18T22:44:06.990Z,-4.04
2024-01-18T22:46:33.366Z,-4.01
2024-01-18T22:49:00.087Z,-3.64
2024-01-18T22:51:26.537Z,-3.74
2024-01-18T22:53:52.962Z,-4.00
2024-01-18T22:56:19.526Z,-4.18
2024-01-18T22:58:45.897Z,-4.33
2024-01-18T23:01:12.298Z,-4.51
2024-01-18T23:03:38.742Z,-4.21
2024-01-18T23:08:31.598Z,-3.91
2024-01-18T23:10:59.510Z,-3.90
2024-01-18T23:13:26.686Z,-3.74
2024-01-18T23:15:53.143Z,-3.72
2024-01-18T23:18:19.741Z,-3.73
2024-01-18T23:20:46.195Z,-4.07
2024-01-18T23:23:12.592Z,-4.03
2024-01-18T23:25:39.067Z,-4.18
2024-01-18T23:28:05.451Z,-3.97
2024-01-18T23:30:32.145Z,-3.99
2024-01-18T23:32:58.589Z,-3.99
2024-01-18T23:35:25.020Z,-4.10
2024-01-18T23:37:52.421Z,-4.13
2024-01-18T23:40:18.807Z,-4.20
2024-01-18T23:42:45.242Z,-4.05
2024-01-18T23:45:11.640Z,-3.98
2024-01-18T23:47:38.237Z,-3.78
2024-01-18T23:50:04.779Z,-3.75
2024-01-18T23:52:31.202Z,-3.76
2024-01-18T23:54:57.581Z,-3.88
2024-01-18T23:57:23.946Z,-3.78
2024-01-18T23:59:50.951Z,-3.79
